createdAt,value
2018-12-11T00:00:27.209Z,6.70
2018-12-11T00:01:28.279Z,6.60
2018-12-11T00:02:29.255Z,6.60
2018-12-11T00:03:30.403Z,6.60
2018-12-11T00:04:31.566Z,6.50
2018-12-11T00:05:32.537Z,6.60
2018-12-11T00:06:33.612Z,6.60
2018-12-11T00:07:34.571Z,6.60
2018-12-11T00:08:35.571Z,6.70
2018-12-11T00:09:36.521Z,6.60
2018-12-11T00:10:37.471Z,6.70
2018-12-11T00:11:38.415Z,6.70
2018-12-11T00:12:39.503Z,6.70
2018-12-11T00:13:40.473Z,6.70
2018-12-11T00:14:41.438Z,6.70
2018-12-11T00:15:42.399Z,6.70
2018-12-11T00:16:43.361Z,6.70
2018-12-11T00:17:44.425Z,6.70
2018-12-11T00:18:45.383Z,6.70
2018-12-11T00:19:46.351Z,6.80
2018-12-11T00:20:47.315Z,6.80
2018-12-11T00:21:48.387Z,6.80
2018-12-11T00:22:49.348Z,6.80
2018-12-11T00:23:50.374Z,6.80
2018-12-11T00:24:51.323Z,6.70
2018-12-11T00:25:52.275Z,6.70
2018-12-11T00:26:53.258Z,6.70
2018-12-11T00:27:54.205Z,6.70
2018-12-11T00:28:55.270Z,6.70
2018-12-11T00:29:56.224Z,6.70
2018-12-11T00:30:57.191Z,6.70
2018-12-11T00:31:58.167Z,6.70
2018-12-11T00:32:59.147Z,6.80
2018-12-11T00:34:00.104Z,6.70
2018-12-11T00:35:01.263Z,6.70
2018-12-11T00:36:02.354Z,6.60
2018-12-11T00:37:03.519Z,6.60
2018-12-11T00:38:04.576Z,6.60
2018-12-11T00:39:05.683Z,6.50
2018-12-11T00:40:13.784Z,6.50
2018-12-11T00:41:14.964Z,6.50
2018-12-11T00:42:16.034Z,6.50
2018-12-11T00:43:16.992Z,6.50
2018-12-11T00:44:18.075Z,6.40
2018-12-11T00:45:19.140Z,6.40
2018-12-11T00:46:20.281Z,6.50
2018-12-11T00:47:21.251Z,6.40
2018-12-11T00:48:22.307Z,6.40
2018-12-11T00:49:23.252Z,6.40
2018-12-11T00:50:24.312Z,6.40
2018-12-11T00:51:25.269Z,6.40
2018-12-11T00:52:26.322Z,6.40
2018-12-11T00:53:27.535Z,6.40
2018-12-11T00:54:28.483Z,6.40
2018-12-11T00:55:29.747Z,6.40
2018-12-11T00:56:30.837Z,6.30
2018-12-11T00:57:31.972Z,6.30
2018-12-11T00:58:33.047Z,6.30
2018-12-11T00:59:34.007Z,6.40
2018-12-11T01:00:34.967Z,6.40
2018-12-11T01:01:36.130Z,6.40
2018-12-11T01:02:37.303Z,6.40
2018-12-11T01:03:38.368Z,6.50
2018-12-11T01:04:39.346Z,6.40
2018-12-11T01:05:47.392Z,6.50
2018-12-11T01:06:48.631Z,6.30
2018-12-11T01:07:49.667Z,6.20
2018-12-11T01:08:50.681Z,6.20
2018-12-11T01:09:51.644Z,6.20
2018-12-11T01:10:52.716Z,6.20
2018-12-11T01:11:53.717Z,6.20
2018-12-11T01:12:54.880Z,6.20
2018-12-11T01:13:55.940Z,6.20
2018-12-11T01:14:56.943Z,6.20
2018-12-11T01:15:57.897Z,6.20
2018-12-11T01:16:58.951Z,6.10
2018-12-11T01:18:00.300Z,6.10
2018-12-11T01:19:01.307Z,6.10
2018-12-11T01:20:03.588Z,6.10
2018-12-11T01:21:04.571Z,6.10
2018-12-11T01:22:05.747Z,6.10
2018-12-11T01:23:06.765Z,6.10
2018-12-11T01:24:07.729Z,6.20
2018-12-11T01:25:08.703Z,6.10
2018-12-11T01:26:09.656Z,6.10
2018-12-11T01:27:10.864Z,6.10
2018-12-11T01:28:11.823Z,6.10
2018-12-11T01:29:12.789Z,6.10
2018-12-11T01:30:13.740Z,6.10
2018-12-11T01:31:14.839Z,6.10
2018-12-11T01:32:15.947Z,6.10
2018-12-11T01:33:17.016Z,6.10
2018-12-11T01:34:17.958Z,6.20
2018-12-11T01:35:18.914Z,6.10
2018-12-11T01:36:20.015Z,6.10
2018-12-11T01:37:20.971Z,6.10
2018-12-11T01:38:22.034Z,6.10
2018-12-11T01:39:22.999Z,6.00
2018-12-11T01:40:23.971Z,6.10
2018-12-11T01:41:24.931Z,6.10
2018-12-11T01:42:25.995Z,6.10
2018-12-11T01:43:26.967Z,6.10
2018-12-11T01:44:28.059Z,6.10
2018-12-11T01:45:29.020Z,6.10
2018-12-11T01:46:30.197Z,6.10
2018-12-11T01:47:31.307Z,6.10
2018-12-11T01:48:32.521Z,6.10
2018-12-11T01:49:33.511Z,6.00
2018-12-11T01:50:34.631Z,6.10
2018-12-11T01:51:35.587Z,6.00
2018-12-11T01:52:36.553Z,6.00
2018-12-11T01:53:37.615Z,6.10
2018-12-11T01:54:38.684Z,6.10
2018-12-11T01:55:39.755Z,6.10
2018-12-11T01:56:40.832Z,6.20
2018-12-11T01:57:41.775Z,6.20
2018-12-11T01:58:42.728Z,6.20
2018-12-11T01:59:43.680Z,6.20
2018-12-11T02:00:44.648Z,6.10
2018-12-11T02:01:45.706Z,6.10
2018-12-11T02:02:46.663Z,6.10
2018-12-11T02:03:47.715Z,6.00
2018-12-11T02:04:48.679Z,6.00
2018-12-11T02:05:49.755Z,6.00
2018-12-11T02:06:50.743Z,6.10
2018-12-11T02:07:51.803Z,6.10
2018-12-11T02:08:52.986Z,6.10
2018-12-11T02:09:53.947Z,6.10
2018-12-11T02:10:55.023Z,6.00
2018-12-11T02:11:55.985Z,6.00
2018-12-11T02:12:56.931Z,6.00
2018-12-11T02:13:58.005Z,5.90
2018-12-11T02:14:58.969Z,5.90
2018-12-11T02:16:00.032Z,6.00
2018-12-11T02:17:01.088Z,6.00
2018-12-11T02:18:02.259Z,6.00
2018-12-11T02:19:03.531Z,6.00
2018-12-11T02:20:05.891Z,6.00
2018-12-11T02:21:06.848Z,6.00
2018-12-11T02:22:07.911Z,6.00
2018-12-11T02:23:08.875Z,6.00
2018-12-11T02:24:09.836Z,6.00
2018-12-11T02:25:11.015Z,6.00
2018-12-11T02:26:12.105Z,6.00
2018-12-11T02:27:13.311Z,5.90
2018-12-11T02:28:14.315Z,5.90
2018-12-11T02:29:15.271Z,5.90
2018-12-11T02:30:16.405Z,5.90
2018-12-11T02:31:17.557Z,5.90
2018-12-11T02:32:18.515Z,6.00
2018-12-11T02:33:19.581Z,6.00
2018-12-11T02:34:20.791Z,6.00
2018-12-11T02:35:21.957Z,6.00
2018-12-11T02:36:23.121Z,6.00
2018-12-11T02:37:24.287Z,6.00
2018-12-11T02:38:25.352Z,6.00
2018-12-11T02:39:26.319Z,6.00
2018-12-11T02:40:27.389Z,6.00
2018-12-11T02:41:28.445Z,6.00
2018-12-11T02:42:29.407Z,6.00
2018-12-11T02:43:30.481Z,6.00
2018-12-11T02:44:31.431Z,6.00
2018-12-11T02:45:32.404Z,5.90
2018-12-11T02:46:33.474Z,5.90
2018-12-11T02:47:34.699Z,5.90
2018-12-11T02:48:35.659Z,5.90
2018-12-11T02:49:36.607Z,5.90
2018-12-11T02:50:37.667Z,5.80
2018-12-11T02:51:38.739Z,5.90
2018-12-11T02:52:39.783Z,5.90
2018-12-11T02:53:40.963Z,5.90
2018-12-11T02:54:42.024Z,5.90
2018-12-11T02:55:43.084Z,5.90
2018-12-11T02:56:44.044Z,5.90
2018-12-11T02:57:45.102Z,5.90
2018-12-11T02:58:46.159Z,5.90
2018-12-11T02:59:47.115Z,5.90
2018-12-11T03:00:48.209Z,5.90
2018-12-11T03:01:49.271Z,5.90
2018-12-11T03:02:50.279Z,5.90
2018-12-11T03:03:51.240Z,5.90
2018-12-11T03:04:52.299Z,5.90
2018-12-11T03:05:53.319Z,5.90
2018-12-11T03:06:54.332Z,5.90
2018-12-11T03:07:55.291Z,5.90
2018-12-11T03:08:56.253Z,6.00
2018-12-11T03:09:57.224Z,6.00
2018-12-11T03:10:58.288Z,5.90
2018-12-11T03:11:59.243Z,6.00
2018-12-11T03:13:00.227Z,6.00
2018-12-11T03:14:01.490Z,6.00
2018-12-11T03:15:03.665Z,6.00
2018-12-11T03:16:04.735Z,6.00
2018-12-11T03:17:05.806Z,6.00
2018-12-11T03:18:06.872Z,6.00
2018-12-11T03:19:07.939Z,6.00
2018-12-11T03:20:08.900Z,6.00
2018-12-11T03:21:09.963Z,6.00
2018-12-11T03:22:10.914Z,6.00
2018-12-11T03:23:12.051Z,6.00
2018-12-11T03:24:13.067Z,6.00
2018-12-11T03:25:14.059Z,6.00
2018-12-11T03:26:15.157Z,6.00
2018-12-11T03:27:16.122Z,6.00
2018-12-11T03:28:17.182Z,6.00
2018-12-11T03:29:18.202Z,6.00
2018-12-11T03:30:19.413Z,6.00
2018-12-11T03:31:20.593Z,6.00
2018-12-11T03:32:21.677Z,6.10
2018-12-11T03:33:22.743Z,6.10
2018-12-11T03:34:23.715Z,6.10
2018-12-11T03:35:24.723Z,6.10
2018-12-11T03:36:25.784Z,6.20
2018-12-11T03:37:26.753Z,6.20
2018-12-11T03:38:27.758Z,6.20
2018-12-11T03:39:28.732Z,6.20
2018-12-11T03:40:30.009Z,6.20
2018-12-11T03:41:31.184Z,6.30
2018-12-11T03:42:32.171Z,6.30
2018-12-11T03:43:33.123Z,6.40
2018-12-11T03:44:34.287Z,6.40
2018-12-11T03:45:35.260Z,6.40
2018-12-11T03:46:36.272Z,6.40
2018-12-11T03:47:37.316Z,6.40
2018-12-11T03:48:38.379Z,6.50
2018-12-11T03:49:39.461Z,6.50
2018-12-11T03:50:40.439Z,6.50
2018-12-11T03:51:41.503Z,6.60
2018-12-11T03:52:42.478Z,6.50
2018-12-11T03:53:43.437Z,6.50
2018-12-11T03:54:44.391Z,6.60
2018-12-11T03:55:45.578Z,6.50
2018-12-11T03:56:46.575Z,6.60
2018-12-11T03:57:47.740Z,6.60
2018-12-11T03:58:48.703Z,6.60
2018-12-11T03:59:49.782Z,6.50
2018-12-11T04:00:50.868Z,6.50
2018-12-11T04:01:51.869Z,6.50
2018-12-11T04:02:52.863Z,6.50
2018-12-11T04:03:53.918Z,6.40
2018-12-11T04:04:54.975Z,6.40
2018-12-11T04:05:55.943Z,6.40
2018-12-11T04:06:56.921Z,6.40
2018-12-11T04:07:57.901Z,6.30
2018-12-11T04:08:58.969Z,6.30
2018-12-11T04:09:59.930Z,6.30
2018-12-11T04:11:00.891Z,6.30
2018-12-11T04:12:02.480Z,6.30
2018-12-11T04:13:03.754Z,6.30
2018-12-11T04:14:04.719Z,6.40
2018-12-11T04:15:06.090Z,6.40
2018-12-11T04:16:08.051Z,6.40
2018-12-11T04:17:09.120Z,6.30
2018-12-11T04:18:10.098Z,6.30
2018-12-11T04:19:11.170Z,6.20
2018-12-11T04:20:12.528Z,6.20
2018-12-11T04:21:13.603Z,6.20
2018-12-11T04:22:14.590Z,6.20
2018-12-11T04:23:15.553Z,6.10
2018-12-11T04:24:16.564Z,6.10
2018-12-11T04:25:17.523Z,6.10
2018-12-11T04:26:18.478Z,6.10
2018-12-11T04:27:19.448Z,6.10
2018-12-11T04:28:20.555Z,6.10
2018-12-11T04:29:21.512Z,6.10
2018-12-11T04:30:22.471Z,6.10
2018-12-11T04:31:23.436Z,5.80
2018-12-11T04:32:24.603Z,6.00
2018-12-11T04:33:25.567Z,6.00
2018-12-11T04:34:26.552Z,6.00
2018-12-11T04:35:27.623Z,6.00
2018-12-11T04:36:28.624Z,6.00
2018-12-11T04:37:29.590Z,6.10
2018-12-11T04:38:30.546Z,6.00
2018-12-11T04:39:34.005Z,6.00
2018-12-11T04:40:34.688Z,6.00
2018-12-11T04:41:35.635Z,6.00
2018-12-11T04:42:36.592Z,6.00
2018-12-11T04:43:37.551Z,6.00
2018-12-11T04:44:38.619Z,6.00
2018-12-11T04:45:39.598Z,6.00
2018-12-11T04:46:40.570Z,6.00
2018-12-11T04:47:41.549Z,6.00
2018-12-11T04:48:42.771Z,6.00
2018-12-11T04:49:43.743Z,6.10
2018-12-11T04:50:44.798Z,6.10
2018-12-11T04:51:45.867Z,6.20
2018-12-11T04:52:46.947Z,6.20
2018-12-11T04:53:47.965Z,6.20
2018-12-11T04:54:49.006Z,6.30
2018-12-11T04:55:50.189Z,6.30
2018-12-11T04:56:51.250Z,6.30
2018-12-11T04:57:52.316Z,6.40
2018-12-11T04:58:53.344Z,6.40
2018-12-11T04:59:54.307Z,6.40
2018-12-11T05:00:55.274Z,6.40
2018-12-11T05:01:56.250Z,6.40
2018-12-11T05:02:57.316Z,6.30
2018-12-11T05:03:58.267Z,6.30
2018-12-11T05:04:59.223Z,6.30
2018-12-11T05:06:00.295Z,6.30
2018-12-11T05:07:01.250Z,6.40
2018-12-11T05:08:04.425Z,6.40
2018-12-11T05:09:05.687Z,6.40
2018-12-11T05:10:06.879Z,6.40
2018-12-11T05:11:07.944Z,6.40
2018-12-11T05:12:15.827Z,6.40
2018-12-11T05:13:16.838Z,6.40
2018-12-11T05:14:17.819Z,6.50
2018-12-11T05:15:18.779Z,6.40
2018-12-11T05:16:19.906Z,6.40
2018-12-11T05:17:20.860Z,6.40
2018-12-11T05:18:21.808Z,6.40
2018-12-11T05:19:22.987Z,6.40
2018-12-11T05:20:23.941Z,6.30
2018-12-11T05:21:24.991Z,6.30
2018-12-11T05:22:25.943Z,6.30
2018-12-11T05:23:27.036Z,6.30
2018-12-11T05:24:28.099Z,6.30
2018-12-11T05:25:29.084Z,6.30
2018-12-11T05:26:30.155Z,6.30
2018-12-11T05:27:31.227Z,6.30
2018-12-11T05:28:32.344Z,6.40
2018-12-11T05:29:33.311Z,6.40
2018-12-11T05:30:34.374Z,6.30
2018-12-11T05:31:35.440Z,6.30
2018-12-11T05:32:36.408Z,6.30
2018-12-11T05:33:37.492Z,6.30
2018-12-11T05:34:38.457Z,6.20
2018-12-11T05:35:39.586Z,6.20
2018-12-11T05:36:40.595Z,6.20
2018-12-11T05:37:41.561Z,6.10
2018-12-11T05:38:42.515Z,6.10
2018-12-11T05:39:43.489Z,6.10
2018-12-11T05:40:44.443Z,6.10
2018-12-11T05:41:45.405Z,6.10
2018-12-11T05:42:46.630Z,6.10
2018-12-11T05:43:47.583Z,5.90
2018-12-11T05:44:48.549Z,6.00
2018-12-11T05:45:49.508Z,6.00
2018-12-11T05:46:50.490Z,6.00
2018-12-11T05:47:51.451Z,5.90
2018-12-11T05:48:52.418Z,5.90
2018-12-11T05:49:53.406Z,5.90
2018-12-11T05:50:54.375Z,5.90
2018-12-11T05:51:55.332Z,5.90
2018-12-11T05:52:56.401Z,5.90
2018-12-11T05:53:57.363Z,5.90
2018-12-11T05:54:58.327Z,5.90
2018-12-11T05:55:59.288Z,5.80
2018-12-11T05:57:00.582Z,5.80
2018-12-11T05:58:01.555Z,5.80
2018-12-11T05:59:02.751Z,5.80
2018-12-11T06:00:07.165Z,5.80
2018-12-11T06:01:08.234Z,5.80
2018-12-11T06:02:09.209Z,5.70
2018-12-11T06:03:10.204Z,5.70
2018-12-11T06:04:11.179Z,5.80
2018-12-11T06:05:12.261Z,5.70
2018-12-11T06:06:13.334Z,5.70
2018-12-11T06:07:14.275Z,5.70
2018-12-11T06:08:15.339Z,5.70
2018-12-11T06:09:16.404Z,5.70
2018-12-11T06:10:17.481Z,5.70
2018-12-11T06:11:18.473Z,5.60
2018-12-11T06:12:19.595Z,5.60
2018-12-11T06:13:20.553Z,5.70
2018-12-11T06:14:21.519Z,5.60
2018-12-11T06:15:22.486Z,5.60
2018-12-11T06:16:23.759Z,5.70
2018-12-11T06:17:24.714Z,5.70
2018-12-11T06:18:25.684Z,5.70
2018-12-11T06:19:26.642Z,5.70
2018-12-11T06:20:27.815Z,5.70
2018-12-11T06:21:28.772Z,5.80
2018-12-11T06:22:29.726Z,5.80
2018-12-11T06:23:30.673Z,5.80
2018-12-11T06:24:31.665Z,5.80
2018-12-11T06:25:32.627Z,5.80
2018-12-11T06:26:33.689Z,5.80
2018-12-11T06:27:34.642Z,5.80
2018-12-11T06:28:36.276Z,5.80
2018-12-11T06:29:37.365Z,5.90
2018-12-11T06:30:38.386Z,5.90
2018-12-11T06:31:39.461Z,5.90
2018-12-11T06:32:40.428Z,5.90
2018-12-11T06:33:41.396Z,5.90
2018-12-11T06:34:42.360Z,5.90
2018-12-11T06:35:43.439Z,5.90
2018-12-11T06:36:44.407Z,5.90
2018-12-11T06:37:45.358Z,5.90
2018-12-11T06:38:46.305Z,5.90
2018-12-11T06:39:47.280Z,5.90
2018-12-11T06:40:48.266Z,5.90
2018-12-11T06:41:49.223Z,5.90
2018-12-11T06:42:50.181Z,5.90
2018-12-11T06:43:51.379Z,5.90
2018-12-11T06:44:52.343Z,5.90
2018-12-11T06:45:53.434Z,5.90
2018-12-11T06:46:54.392Z,5.90
2018-12-11T06:47:55.348Z,5.90
2018-12-11T06:48:56.295Z,5.90
2018-12-11T06:49:57.255Z,5.90
2018-12-11T06:50:58.313Z,5.90
2018-12-11T06:51:59.284Z,5.90
2018-12-11T06:53:00.244Z,5.90
2018-12-11T06:54:01.210Z,5.90
2018-12-11T06:55:02.399Z,5.90
2018-12-11T06:56:03.363Z,5.90
2018-12-11T06:57:04.331Z,5.80
2018-12-11T06:58:05.313Z,5.80
2018-12-11T06:59:06.314Z,5.80
2018-12-11T07:00:07.803Z,5.90
2018-12-11T07:01:08.863Z,5.90
2018-12-11T07:02:09.937Z,5.90
2018-12-11T07:03:10.908Z,6.00
2018-12-11T07:04:11.871Z,6.00
2018-12-11T07:05:12.881Z,6.00
2018-12-11T07:06:13.963Z,6.00
2018-12-11T07:07:14.932Z,6.00
2018-12-11T07:08:17.018Z,6.00
2018-12-11T07:09:18.119Z,6.00
2018-12-11T07:10:19.095Z,6.10
2018-12-11T07:11:20.124Z,6.10
2018-12-11T07:12:21.205Z,6.10
2018-12-11T07:13:22.171Z,6.20
2018-12-11T07:14:23.175Z,6.20
2018-12-11T07:15:24.131Z,6.20
2018-12-11T07:16:25.087Z,6.20
2018-12-11T07:17:26.056Z,6.30
2018-12-11T07:18:27.042Z,6.30
2018-12-11T07:19:28.105Z,6.30
2018-12-11T07:20:29.157Z,6.30
2018-12-11T07:21:30.214Z,6.30
2018-12-11T07:22:31.171Z,6.30
2018-12-11T07:23:32.124Z,6.40
2018-12-11T07:24:33.075Z,6.30
2018-12-11T07:25:34.145Z,6.30
2018-12-11T07:26:35.219Z,6.20
2018-12-11T07:27:36.179Z,6.20
2018-12-11T07:28:37.254Z,6.20
2018-12-11T07:29:38.221Z,6.20
2018-12-11T07:30:39.311Z,6.20
2018-12-11T07:31:47.415Z,6.20
2018-12-11T07:32:48.375Z,6.20
2018-12-11T07:33:51.053Z,6.20
2018-12-11T07:34:52.099Z,6.20
2018-12-11T07:35:53.218Z,6.10
2018-12-11T07:36:54.337Z,6.20
2018-12-11T07:37:55.376Z,6.10
2018-12-11T07:38:56.331Z,6.10
2018-12-11T07:39:57.299Z,6.10
2018-12-11T07:40:58.263Z,6.00
2018-12-11T07:41:59.207Z,6.00
2018-12-11T07:43:00.287Z,6.10
2018-12-11T07:44:01.621Z,6.10
2018-12-11T07:45:03.201Z,6.10
2018-12-11T07:46:04.299Z,6.10
2018-12-11T07:47:05.355Z,6.20
2018-12-11T07:48:06.312Z,6.10
2018-12-11T07:49:07.279Z,6.10
2018-12-11T07:50:08.354Z,6.10
2018-12-11T07:51:09.320Z,6.10
2018-12-11T07:52:10.268Z,6.10
2018-12-11T07:53:11.219Z,6.10
2018-12-11T07:54:12.164Z,6.20
2018-12-11T07:55:13.351Z,6.20
2018-12-11T07:56:14.351Z,6.30
2018-12-11T07:57:15.434Z,6.20
2018-12-11T07:58:16.402Z,6.30
2018-12-11T07:59:17.343Z,6.30
2018-12-11T08:00:18.487Z,6.30
2018-12-11T08:01:19.447Z,6.40
2018-12-11T08:02:20.538Z,6.40
2018-12-11T08:03:21.496Z,6.40
2018-12-11T08:04:22.454Z,6.40
2018-12-11T08:05:23.419Z,6.40
2018-12-11T08:06:24.390Z,6.40
2018-12-11T08:07:25.459Z,6.40
2018-12-11T08:08:26.423Z,6.40
2018-12-11T08:09:27.398Z,6.50
2018-12-11T08:10:28.515Z,6.50
2018-12-11T08:11:29.560Z,6.50
2018-12-11T08:12:30.521Z,6.60
2018-12-11T08:13:31.629Z,6.60
2018-12-11T08:14:32.691Z,6.60
2018-12-11T08:15:33.655Z,6.60
2018-12-11T08:16:34.739Z,6.60
2018-12-11T08:17:35.685Z,6.60
2018-12-11T08:18:37.660Z,6.50
2018-12-11T08:19:38.642Z,6.50
2018-12-11T08:20:46.929Z,6.50
2018-12-11T08:21:47.888Z,6.50
2018-12-11T08:22:48.900Z,6.40
2018-12-11T08:23:49.853Z,6.30
2018-12-11T08:24:51.034Z,6.30
2018-12-11T08:25:52.020Z,6.30
2018-12-11T08:26:53.275Z,6.20
2018-12-11T08:27:54.234Z,6.20
2018-12-11T08:28:55.184Z,6.20
2018-12-11T08:29:56.289Z,6.20
2018-12-11T08:30:57.254Z,6.20
2018-12-11T08:31:58.217Z,6.20
2018-12-11T08:32:59.870Z,6.20
2018-12-11T08:34:00.948Z,6.20
2018-12-11T08:35:02.216Z,6.20
2018-12-11T08:36:03.323Z,6.10
2018-12-11T08:37:04.308Z,6.10
2018-12-11T08:38:05.270Z,6.10
2018-12-11T08:39:06.338Z,6.10
2018-12-11T08:40:07.355Z,6.10
2018-12-11T08:41:08.914Z,6.10
2018-12-11T08:42:09.867Z,6.10
2018-12-11T08:43:10.932Z,6.10
2018-12-11T08:44:11.887Z,6.10
2018-12-11T08:45:12.858Z,6.10
2018-12-11T08:46:14.019Z,6.20
2018-12-11T08:47:14.983Z,6.20
2018-12-11T08:48:15.924Z,6.30
2018-12-11T08:49:21.364Z,6.30
2018-12-11T08:50:22.360Z,6.40
2018-12-11T08:51:23.415Z,6.40
2018-12-11T08:52:24.375Z,6.50
2018-12-11T08:53:25.336Z,6.50
2018-12-11T08:54:26.327Z,6.50
2018-12-11T08:55:27.427Z,6.50
2018-12-11T08:56:28.500Z,6.60
2018-12-11T08:57:29.462Z,6.60
2018-12-11T08:58:30.429Z,6.60
2018-12-11T08:59:31.599Z,6.60
2018-12-11T09:00:32.568Z,6.70
2018-12-11T09:01:33.641Z,6.70
2018-12-11T09:02:34.703Z,6.60
2018-12-11T09:03:35.673Z,6.60
2018-12-11T09:04:36.632Z,6.60
2018-12-11T09:05:37.622Z,6.60
2018-12-11T09:06:38.667Z,6.60
2018-12-11T09:07:40.056Z,6.70
2018-12-11T09:08:41.109Z,6.70
2018-12-11T09:09:42.072Z,6.60
2018-12-11T09:10:43.071Z,6.60
2018-12-11T09:11:44.049Z,6.60
2018-12-11T09:12:45.120Z,6.60
2018-12-11T09:13:46.083Z,6.60
2018-12-11T09:14:47.164Z,6.60
2018-12-11T09:15:48.340Z,6.60
2018-12-11T09:16:49.351Z,6.60
2018-12-11T09:17:50.348Z,6.50
2018-12-11T09:18:51.304Z,6.50
2018-12-11T09:19:52.333Z,6.50
2018-12-11T09:20:53.427Z,6.40
2018-12-11T09:21:54.383Z,6.50
2018-12-11T09:22:55.349Z,6.50
2018-12-11T09:23:56.340Z,6.50
2018-12-11T09:24:57.500Z,6.50
2018-12-11T09:25:58.565Z,6.40
2018-12-11T09:26:59.515Z,6.40
2018-12-11T09:28:00.483Z,6.40
2018-12-11T09:29:01.452Z,6.40
2018-12-11T09:30:04.861Z,6.30
2018-12-11T09:31:05.839Z,6.40
2018-12-11T09:32:06.810Z,6.50
2018-12-11T09:33:07.776Z,6.40
2018-12-11T09:34:08.757Z,6.60
2018-12-11T09:35:09.744Z,6.60
2018-12-11T09:36:10.832Z,6.70
2018-12-11T09:37:11.895Z,6.70
2018-12-11T09:38:12.901Z,6.80
2018-12-11T09:39:13.963Z,6.70
2018-12-11T09:40:15.030Z,6.70
2018-12-11T09:41:16.122Z,6.70
2018-12-11T09:42:17.191Z,6.80
2018-12-11T09:43:18.186Z,6.80
2018-12-11T09:44:19.135Z,6.80
2018-12-11T09:45:20.204Z,6.80
2018-12-11T09:46:21.171Z,6.80
2018-12-11T09:47:22.135Z,6.80
2018-12-11T09:48:23.244Z,6.80
2018-12-11T09:49:24.325Z,6.70
2018-12-11T09:50:25.287Z,6.70
2018-12-11T09:51:26.262Z,6.60
2018-12-11T09:52:27.531Z,6.60
2018-12-11T09:53:28.517Z,6.60
2018-12-11T09:54:29.496Z,6.60
2018-12-11T09:55:30.456Z,6.60
2018-12-11T09:56:31.424Z,6.50
2018-12-11T09:57:32.495Z,6.50
2018-12-11T09:58:33.500Z,6.50
2018-12-11T09:59:34.451Z,6.50
2018-12-11T10:00:35.657Z,6.50
2018-12-11T10:01:36.696Z,6.50
2018-12-11T10:02:37.771Z,6.60
2018-12-11T10:03:38.760Z,6.60
2018-12-11T10:04:39.938Z,6.70
2018-12-11T10:05:41.012Z,6.70
2018-12-11T10:06:41.979Z,6.70
2018-12-11T10:07:42.969Z,6.70
2018-12-11T10:08:43.927Z,6.70
2018-12-11T10:09:44.995Z,6.70
2018-12-11T10:10:46.347Z,6.70
2018-12-11T10:11:47.448Z,6.70
2018-12-11T10:12:48.667Z,6.80
2018-12-11T10:13:49.655Z,6.80
2018-12-11T10:14:50.632Z,6.80
2018-12-11T10:15:51.739Z,6.80
2018-12-11T10:16:52.725Z,6.90
2018-12-11T10:17:53.718Z,6.90
2018-12-11T10:18:55.090Z,6.80
2018-12-11T10:19:56.183Z,6.80
2018-12-11T10:20:57.148Z,6.90
2018-12-11T10:21:58.215Z,6.90
2018-12-11T10:23:00.181Z,6.80
2018-12-11T10:24:01.267Z,6.80
2018-12-11T10:25:02.663Z,6.80
2018-12-11T10:26:03.635Z,6.80
2018-12-11T10:27:04.695Z,6.80
2018-12-11T10:28:05.644Z,6.80
2018-12-11T10:29:06.699Z,6.80
2018-12-11T10:30:08.634Z,6.80
2018-12-11T10:31:09.615Z,6.80
2018-12-11T10:32:10.687Z,6.80
2018-12-11T10:33:11.650Z,6.80
2018-12-11T10:34:12.771Z,6.80
2018-12-11T10:35:13.788Z,6.80
2018-12-11T10:36:14.767Z,6.80
2018-12-11T10:37:15.747Z,6.80
2018-12-11T10:38:16.700Z,6.80
2018-12-11T10:39:17.663Z,6.80
2018-12-11T10:40:18.629Z,6.70
2018-12-11T10:41:19.715Z,6.70
2018-12-11T10:42:20.678Z,6.70
2018-12-11T10:43:21.759Z,6.80
2018-12-11T10:44:22.712Z,6.80
2018-12-11T10:45:23.677Z,6.70
2018-12-11T10:46:24.839Z,6.70
2018-12-11T10:47:25.799Z,6.70
2018-12-11T10:48:26.789Z,6.70
2018-12-11T10:49:27.951Z,6.70
2018-12-11T10:50:29.003Z,6.70
2018-12-11T10:51:29.985Z,6.80
2018-12-11T10:52:31.043Z,6.80
2018-12-11T10:53:32.004Z,6.80
2018-12-11T10:54:32.960Z,6.90
2018-12-11T10:55:33.927Z,6.90
2018-12-11T10:56:34.875Z,6.90
2018-12-11T10:57:36.039Z,6.90
2018-12-11T10:58:36.991Z,6.90
2018-12-11T10:59:38.047Z,6.90
2018-12-11T11:00:43.316Z,6.90
2018-12-11T11:01:46.143Z,6.90
2018-12-11T11:03:00.155Z,6.90
2018-12-11T11:04:01.427Z,6.90
2018-12-11T11:05:03.397Z,6.90
2018-12-11T11:06:04.540Z,6.90
2018-12-11T11:07:05.505Z,6.90
2018-12-11T11:08:06.630Z,6.90
2018-12-11T11:09:07.765Z,6.90
2018-12-11T11:10:08.968Z,6.90
2018-12-11T11:11:10.142Z,6.90
2018-12-11T11:12:11.146Z,6.90
2018-12-11T11:13:12.205Z,7.00
2018-12-11T11:14:13.270Z,7.00
2018-12-11T11:15:14.233Z,7.00
2018-12-11T11:16:15.527Z,7.00
2018-12-11T11:17:16.482Z,7.00
2018-12-11T11:18:17.644Z,7.00
2018-12-11T11:19:18.711Z,7.00
2018-12-11T11:20:19.767Z,7.10
2018-12-11T11:21:20.724Z,7.20
2018-12-11T11:22:21.791Z,7.20
2018-12-11T11:23:22.856Z,7.30
2018-12-11T11:24:23.846Z,7.30
2018-12-11T11:25:24.815Z,7.30
2018-12-11T11:26:25.919Z,7.30
2018-12-11T11:27:26.879Z,7.30
2018-12-11T11:28:27.936Z,7.40
2018-12-11T11:29:29.002Z,7.50
2018-12-11T11:30:30.118Z,7.50
2018-12-11T11:31:31.296Z,7.50
2018-12-11T11:32:32.330Z,7.40
2018-12-11T11:33:33.436Z,7.40
2018-12-11T11:34:37.154Z,7.30
2018-12-11T11:35:38.146Z,7.30
2018-12-11T11:36:39.160Z,7.20
2018-12-11T11:37:40.126Z,7.10
2018-12-11T11:38:41.193Z,7.00
2018-12-11T11:39:42.178Z,7.00
2018-12-11T11:40:43.151Z,6.90
2018-12-11T11:41:44.123Z,6.90
2018-12-11T11:42:45.304Z,6.80
2018-12-11T11:43:46.247Z,6.90
2018-12-11T11:44:47.613Z,6.90
2018-12-11T11:45:48.681Z,6.90
2018-12-11T11:46:49.643Z,6.90
2018-12-11T11:47:50.627Z,6.90
2018-12-11T11:48:51.588Z,7.00
2018-12-11T11:49:52.595Z,7.00
2018-12-11T11:50:53.680Z,7.10
2018-12-11T11:51:54.648Z,7.10
2018-12-11T11:52:55.647Z,7.10
2018-12-11T11:53:56.607Z,7.10
2018-12-11T11:54:57.555Z,7.10
2018-12-11T11:55:58.719Z,7.10
2018-12-11T11:56:59.792Z,7.20
2018-12-11T11:58:00.849Z,7.20
2018-12-11T11:59:02.031Z,7.20
2018-12-11T12:00:06.307Z,7.20
2018-12-11T12:01:07.267Z,7.20
2018-12-11T12:02:08.339Z,7.20
2018-12-11T12:03:09.296Z,7.20
2018-12-11T12:04:10.243Z,7.20
2018-12-11T12:05:11.200Z,7.10
2018-12-11T12:06:12.260Z,7.10
2018-12-11T12:07:13.206Z,7.10
2018-12-11T12:08:14.167Z,7.10
2018-12-11T12:09:15.119Z,7.10
2018-12-11T12:10:16.390Z,7.10
2018-12-11T12:11:17.339Z,7.20
2018-12-11T12:12:18.348Z,7.20
2018-12-11T12:13:19.343Z,7.20
2018-12-11T12:14:20.351Z,7.20
2018-12-11T12:15:21.305Z,7.30
2018-12-11T12:16:22.395Z,7.20
2018-12-11T12:17:23.374Z,7.40
2018-12-11T12:18:24.339Z,7.40
2018-12-11T12:19:25.337Z,7.40
2018-12-11T12:20:26.411Z,7.40
2018-12-11T12:21:27.371Z,7.40
2018-12-11T12:22:28.336Z,7.40
2018-12-11T12:23:29.403Z,7.50
2018-12-11T12:24:30.359Z,7.50
2018-12-11T12:25:31.314Z,7.50
2018-12-11T12:26:32.271Z,7.50
2018-12-11T12:27:33.347Z,7.50
2018-12-11T12:28:34.400Z,7.50
2018-12-11T12:29:35.367Z,7.60
2018-12-11T12:30:36.538Z,7.60
2018-12-11T12:31:37.499Z,7.70
2018-12-11T12:32:38.497Z,7.70
2018-12-11T12:33:39.473Z,7.70
2018-12-11T12:34:40.427Z,7.70
2018-12-11T12:35:41.386Z,7.70
2018-12-11T12:36:42.362Z,7.60
2018-12-11T12:37:43.323Z,7.70
2018-12-11T12:38:44.391Z,7.60
2018-12-11T12:39:45.339Z,7.60
2018-12-11T12:40:46.292Z,7.60
2018-12-11T12:41:47.243Z,7.50
2018-12-11T12:42:48.195Z,7.50
2018-12-11T12:43:49.163Z,7.50
2018-12-11T12:44:50.127Z,7.50
2018-12-11T12:45:51.112Z,7.50
2018-12-11T12:46:52.073Z,7.50
2018-12-11T12:47:53.023Z,7.50
2018-12-11T12:48:53.991Z,7.50
2018-12-11T12:49:55.059Z,7.50
2018-12-11T12:50:56.111Z,7.50
2018-12-11T12:51:57.142Z,7.40
2018-12-11T12:52:58.102Z,7.40
2018-12-11T12:53:59.062Z,7.40
2018-12-11T12:55:00.024Z,7.40
2018-12-11T12:56:01.026Z,7.40
2018-12-11T12:57:02.088Z,7.40
2018-12-11T12:58:03.159Z,7.40
2018-12-11T12:59:04.345Z,7.40
2018-12-11T13:00:07.731Z,7.40
2018-12-11T13:01:08.747Z,7.40
2018-12-11T13:02:09.884Z,7.40
2018-12-11T13:03:18.012Z,7.50
2018-12-11T13:04:19.072Z,7.50
2018-12-11T13:05:20.144Z,7.40
2018-12-11T13:06:21.481Z,7.40
2018-12-11T13:07:22.479Z,7.40
2018-12-11T13:08:23.452Z,7.40
2018-12-11T13:09:24.416Z,7.40
2018-12-11T13:10:25.491Z,7.40
2018-12-11T13:11:26.489Z,7.50
2018-12-11T13:12:27.663Z,7.40
2018-12-11T13:13:28.618Z,7.40
2018-12-11T13:14:29.576Z,7.40
2018-12-11T13:15:30.535Z,7.40
2018-12-11T13:16:31.517Z,7.40
2018-12-11T13:17:32.672Z,7.30
2018-12-11T13:18:33.623Z,7.30
2018-12-11T13:19:34.572Z,7.30
2018-12-11T13:20:35.530Z,7.30
2018-12-11T13:21:36.490Z,7.20
2018-12-11T13:22:37.554Z,7.20
2018-12-11T13:23:38.520Z,7.10
2018-12-11T13:24:39.584Z,7.10
2018-12-11T13:25:40.649Z,7.10
2018-12-11T13:26:41.612Z,7.10
2018-12-11T13:27:42.575Z,7.10
2018-12-11T13:28:43.545Z,7.10
2018-12-11T13:29:44.503Z,7.10
2018-12-11T13:30:45.854Z,7.20
2018-12-11T13:31:46.803Z,7.20
2018-12-11T13:32:47.867Z,7.20
2018-12-11T13:33:48.953Z,7.20